Nearby METAR Reports

 

CYVR - Vancouver Intl A, British Columbia, Canada
Distance from station: WSW 19km
Updated: Fri, 05-29-2020 5:00am PDT
Few Clouds
Few Clouds
 Wind from ESE
Wind: ESE 11 km/h
Temperature: 13°C
Dew Point: 11°C
Humidity: 88%
Barometer: 1013.2 hPa
Clouds: Few Clouds
Visibility: 32 km
Cloud details: Few Clouds 4572 m
2020/05/29 12:00 CYVR 291200Z 11006KT 20SM FEW150 13/11 A2992 RMK AC1 SLP134
CWWA - W Vancouver Auto, British Columbia, Canada
Distance from station: NW 24km
Updated: Fri, 05-29-2020 5:00am PDT

 Wind from N
Wind: N 2 km/h
Temperature: 15°C
Dew Point: 7°C
Humidity: 59%
2020/05/29 12:00 CWWA 291200Z AUTO 01001KT 15/07 RMK AO1 SLP134 T01510068 50001
 
CWWK - White Rock Autob, British Columbia, Canada
Distance from station: SSE 24km
Updated: Fri, 05-29-2020 5:00am PDT

 Wind from calm
Wind: Calm
Temperature: 13°C
Dew Point: 10°C
Humidity: 82%
2020/05/29 12:00 CWWK 291200Z AUTO 00000KT 13/10 RMK AO1 SLP138 T01250101 53002
CWMM - P. Meadows Cs Au, British Columbia, Canada
Distance from station: E 17km
Updated: Fri, 05-29-2020 5:00am PDT

 Wind from E
Wind: E 4 km/h
Temperature: 13°C
Dew Point: 11°C
Humidity: 88%
2020/05/29 12:00 CWMM 291200Z AUTO 09002KT 13/11 RMK AO1 SLP137 T01320111 55001
 
CWVF - Sand Heads (ls), British Columbia, Canada
Distance from station: WSW 30km
Updated: Fri, 05-29-2020 5:00am PDT

 Wind from E
Wind: E 9 km/h
Temperature: 15°C
Dew Point: 11°C
Humidity: 77%
2020/05/29 12:00 CWVF 291200Z AUTO 09005KT 15/11 RMK AO1 T01480108